createdAt,value
2023-05-09T00:00:03.216Z,101552.78
2023-05-09T00:02:34.643Z,101555.09
2023-05-09T00:05:04.001Z,101554.25
2023-05-09T00:07:32.364Z,101536.16
2023-05-09T00:10:00.558Z,101535.47
2023-05-09T00:12:30.029Z,101527.28
2023-05-09T00:14:57.939Z,101532.94
2023-05-09T00:17:26.876Z,101534.09
2023-05-09T00:19:55.464Z,101524.72
2023-05-09T00:22:23.429Z,101532.44
2023-05-09T00:24:51.367Z,101528.91
2023-05-09T00:27:19.310Z,101539.53
2023-05-09T00:29:48.586Z,101532.00
2023-05-09T00:32:16.607Z,101541.84
2023-05-09T00:34:44.788Z,101532.28
2023-05-09T00:37:12.954Z,101529.25
2023-05-09T00:39:40.854Z,101535.38
2023-05-09T00:42:08.786Z,101531.63
2023-05-09T00:44:36.679Z,101532.78
2023-05-09T00:47:06.714Z,101531.19
2023-05-09T00:49:34.712Z,101535.97
2023-05-09T00:52:03.346Z,101523.47
2023-05-09T00:54:31.289Z,101526.44
2023-05-09T00:56:59.191Z,101523.72
2023-05-09T00:59:27.579Z,101522.59
2023-05-09T01:01:57.046Z,101515.00
2023-05-09T01:04:26.432Z,101511.94
2023-05-09T01:06:59.156Z,101511.56
2023-05-09T01:09:32.734Z,101509.88
2023-05-09T01:12:05.537Z,101503.88
2023-05-09T01:14:38.748Z,101497.00
2023-05-09T01:17:10.109Z,101504.16
2023-05-09T01:19:52.445Z,101497.97
2023-05-09T01:22:21.559Z,101500.66
2023-05-09T01:25:08.056Z,101492.97
2023-05-09T01:27:44.608Z,101488.75
2023-05-09T01:30:14.665Z,101488.75
2023-05-09T01:32:43.937Z,101487.94
2023-05-09T01:35:13.660Z,101486.47
2023-05-09T01:37:44.174Z,101495.03
2023-05-09T01:40:14.830Z,101500.03
2023-05-09T01:42:44.497Z,101484.25
2023-05-09T01:45:14.493Z,101485.19
2023-05-09T01:47:43.195Z,101487.41
2023-05-09T01:50:11.987Z,101476.41
2023-05-09T01:52:40.227Z,101488.63
2023-05-09T01:55:08.827Z,101481.44
2023-05-09T01:57:36.869Z,101468.94
2023-05-09T02:00:05.203Z,101468.47
2023-05-09T02:02:42.244Z,101465.88
2023-05-09T02:05:11.771Z,101461.56
2023-05-09T02:07:40.098Z,101460.94
2023-05-09T02:10:09.555Z,101458.34
2023-05-09T02:12:38.587Z,101465.88
2023-05-09T02:15:07.791Z,101468.41
2023-05-09T02:17:42.434Z,101452.66
2023-05-09T02:20:11.558Z,101467.03
2023-05-09T02:22:39.571Z,101461.16
2023-05-09T02:25:08.372Z,101460.31
2023-05-09T02:27:36.346Z,101452.31
2023-05-09T02:30:07.413Z,101453.28
2023-05-09T02:32:35.542Z,101453.28
2023-05-09T02:35:05.214Z,101449.97
2023-05-09T02:37:33.604Z,101449.97
2023-05-09T02:40:01.667Z,101457.66
2023-05-09T02:42:30.228Z,101446.50
2023-05-09T02:44:58.103Z,101450.38
2023-05-09T02:47:26.547Z,101448.06
2023-05-09T02:49:54.508Z,101439.75
2023-05-09T02:52:23.888Z,101444.31
2023-05-09T02:54:51.991Z,101443.53
2023-05-09T02:57:19.948Z,101437.88
2023-05-09T02:59:48.105Z,101439.25
2023-05-09T03:02:16.057Z,101440.22
2023-05-09T03:04:44.589Z,101440.53
2023-05-09T03:07:12.528Z,101444.19
2023-05-09T03:09:41.886Z,101428.16
2023-05-09T03:12:09.925Z,101438.22
2023-05-09T03:14:37.889Z,101426.91
2023-05-09T03:17:06.187Z,101433.59
2023-05-09T03:19:36.721Z,101429.94
2023-05-09T03:22:04.748Z,101430.91
2023-05-09T03:24:36.952Z,101427.75
2023-05-09T03:27:07.008Z,101428.97
2023-05-09T03:29:35.519Z,101432.81
2023-05-09T03:32:03.764Z,101426.97
2023-05-09T03:34:31.767Z,101425.69
2023-05-09T03:37:00.374Z,101427.31
2023-05-09T03:39:31.113Z,101412.47
2023-05-09T03:41:59.097Z,101414.97
2023-05-09T03:44:28.630Z,101409.63
2023-05-09T03:46:56.657Z,101403.25
2023-05-09T03:49:25.442Z,101403.09
2023-05-09T03:51:55.230Z,101407.44
2023-05-09T03:54:23.196Z,101397.59
2023-05-09T03:56:52.007Z,101398.28
2023-05-09T03:59:20.823Z,101400.59
2023-05-09T04:01:50.278Z,101388.41
2023-05-09T04:04:19.471Z,101387.56
2023-05-09T04:06:47.880Z,101393.59
2023-05-09T04:09:17.678Z,101389.69
2023-05-09T04:11:47.733Z,101389.19
2023-05-09T04:14:16.909Z,101383.50
2023-05-09T04:16:44.927Z,101388.34
2023-05-09T04:19:14.245Z,101374.97
2023-05-09T04:21:42.389Z,101374.31
2023-05-09T04:24:10.733Z,101369.16
2023-05-09T04:26:43.216Z,101373.34
2023-05-09T04:29:14.576Z,101377.84
2023-05-09T04:31:44.200Z,101372.31
2023-05-09T04:34:15.909Z,101368.47
2023-05-09T04:36:44.206Z,101372.13
2023-05-09T04:39:12.933Z,101372.13
2023-05-09T04:41:47.987Z,101369.97
2023-05-09T04:44:17.566Z,101384.69
2023-05-09T04:46:46.305Z,101369.81
2023-05-09T04:49:15.689Z,101367.69
2023-05-09T04:51:43.633Z,101364.34
2023-05-09T04:54:11.575Z,101371.19
2023-05-09T04:56:41.687Z,101357.50
2023-05-09T04:59:09.788Z,101359.84
2023-05-09T05:01:37.765Z,101354.50
2023-05-09T05:04:05.981Z,101359.84
2023-05-09T05:06:35.941Z,101356.50
2023-05-09T05:09:05.098Z,101353.13
2023-05-09T05:11:33.026Z,101354.31
2023-05-09T05:14:01.336Z,101363.63
2023-05-09T05:16:29.364Z,101350.41
2023-05-09T05:18:57.456Z,101359.59
2023-05-09T05:21:25.811Z,101359.06
2023-05-09T05:23:55.690Z,101353.06
2023-05-09T05:26:23.872Z,101368.09
2023-05-09T05:28:55.398Z,101361.06
2023-05-09T05:31:24.113Z,101355.72
2023-05-09T05:33:52.008Z,101361.91
2023-05-09T05:36:21.272Z,101354.06
2023-05-09T05:38:49.223Z,101358.72
2023-05-09T05:41:18.978Z,101365.06
2023-05-09T05:43:46.961Z,101355.72
2023-05-09T05:46:16.406Z,101357.72
2023-05-09T05:48:44.417Z,101350.19
2023-05-09T05:51:12.406Z,101366.69
2023-05-09T05:53:42.016Z,101357.97
2023-05-09T05:56:10.780Z,101354.56
2023-05-09T05:58:40.148Z,101355.88
2023-05-09T06:01:08.623Z,101360.22
2023-05-09T06:03:36.646Z,101356.19
2023-05-09T06:06:07.649Z,101351.84
2023-05-09T06:08:35.584Z,101365.19
2023-05-09T06:11:03.466Z,101350.34
2023-05-09T06:13:31.461Z,101356.00
2023-05-09T06:16:18.733Z,101349.47
2023-05-09T06:18:50.662Z,101347.09
2023-05-09T06:21:18.849Z,101348.09
2023-05-09T06:24:05.130Z,101349.41
2023-05-09T06:26:34.399Z,101352.78
2023-05-09T06:29:02.309Z,101353.44
2023-05-09T06:31:31.862Z,101349.91
2023-05-09T06:33:59.826Z,101346.25
2023-05-09T06:36:27.780Z,101351.59
2023-05-09T06:38:55.845Z,101343.59
2023-05-09T06:41:23.780Z,101347.78
2023-05-09T06:43:51.856Z,101349.97
2023-05-09T06:46:19.871Z,101346.47
2023-05-09T06:48:49.210Z,101353.19
2023-05-09T06:51:17.396Z,101341.16
2023-05-09T06:53:45.300Z,101346.34
2023-05-09T06:56:13.261Z,101345.00
2023-05-09T06:58:41.356Z,101339.66
2023-05-09T07:01:09.261Z,101344.16
2023-05-09T07:03:37.471Z,101346.00
2023-05-09T07:06:07.077Z,101337.97
2023-05-09T07:08:35.203Z,101345.50
2023-05-09T07:11:03.095Z,101338.69
2023-05-09T07:13:31.098Z,101333.19
2023-05-09T07:15:58.987Z,101335.16
2023-05-09T07:18:26.923Z,101343.81
2023-05-09T07:20:54.851Z,101341.84
2023-05-09T07:23:25.361Z,101339.16
2023-05-09T07:25:57.783Z,101342.16
2023-05-09T07:28:26.049Z,101334.81
2023-05-09T07:30:54.177Z,101330.16
2023-05-09T07:33:22.192Z,101337.69
2023-05-09T07:35:52.974Z,101329.38
2023-05-09T07:38:20.976Z,101326.88
2023-05-09T07:40:50.256Z,101318.53
2023-05-09T07:43:18.420Z,101329.63
2023-05-09T07:45:47.199Z,101322.94
2023-05-09T07:48:15.490Z,101322.94
2023-05-09T07:50:43.506Z,101317.28
2023-05-09T07:53:11.515Z,101320.78
2023-05-09T07:55:39.447Z,101326.34
2023-05-09T07:58:09.096Z,101326.69
2023-05-09T08:00:37.067Z,101325.34
2023-05-09T08:03:05.574Z,101324.84
2023-05-09T08:05:33.733Z,101314.31
2023-05-09T08:08:01.664Z,101309.97
2023-05-09T08:10:30.726Z,101315.66
2023-05-09T08:13:01.231Z,101318.78
2023-05-09T08:15:31.326Z,101320.28
2023-05-09T08:17:59.535Z,101317.09
2023-05-09T08:20:27.547Z,101325.88
2023-05-09T08:22:55.628Z,101319.50
2023-05-09T08:25:23.581Z,101319.81
2023-05-09T08:27:53.074Z,101327.16
2023-05-09T08:30:21.342Z,101327.16
2023-05-09T08:32:50.685Z,101325.84
2023-05-09T08:35:19.319Z,101314.81
2023-05-09T08:37:47.923Z,101319.13
2023-05-09T08:40:17.102Z,101316.81
2023-05-09T08:42:45.982Z,101314.78
2023-05-09T08:45:15.672Z,101316.47
2023-05-09T08:47:43.679Z,101312.16
2023-05-09T08:50:15.594Z,101307.50
2023-05-09T08:52:45.255Z,101301.16
2023-05-09T08:55:13.181Z,101292.97
2023-05-09T08:57:42.377Z,101295.16
2023-05-09T09:00:12.128Z,101293.88
2023-05-09T09:02:41.880Z,101286.03
2023-05-09T09:05:28.583Z,101289.56
2023-05-09T09:08:00.855Z,101283.56
2023-05-09T09:10:29.628Z,101290.25
2023-05-09T09:12:57.821Z,101280.88
2023-05-09T09:15:29.135Z,101275.88
2023-05-09T09:18:00.363Z,101277.03
2023-05-09T09:20:29.941Z,101270.84
2023-05-09T09:23:00.433Z,101287.25
2023-05-09T09:25:29.202Z,101272.69
2023-05-09T09:27:57.106Z,101273.34
2023-05-09T09:30:25.404Z,101273.91
2023-05-09T09:32:53.620Z,101271.22
2023-05-09T09:35:22.874Z,101273.53
2023-05-09T09:37:52.702Z,101274.22
2023-05-09T09:40:20.673Z,101268.88
2023-05-09T09:42:49.322Z,101280.06
2023-05-09T09:45:18.360Z,101281.25
2023-05-09T09:47:47.082Z,101272.88
2023-05-09T09:50:17.314Z,101275.53
2023-05-09T09:52:48.938Z,101275.06
2023-05-09T09:55:18.697Z,101272.22
2023-05-09T09:57:48.124Z,101276.38
2023-05-09T10:00:17.747Z,101269.88
2023-05-09T10:02:51.331Z,101273.22
2023-05-09T10:05:29.333Z,101265.84
2023-05-09T10:07:58.936Z,101268.88
2023-05-09T10:10:30.819Z,101263.19
2023-05-09T10:12:59.604Z,101266.22
2023-05-09T10:15:28.751Z,101277.09
2023-05-09T10:17:59.104Z,101269.72
2023-05-09T10:20:27.252Z,101261.53
2023-05-09T10:22:56.570Z,101260.53
2023-05-09T10:25:28.995Z,101253.19
2023-05-09T10:27:57.367Z,101259.53
2023-05-09T10:30:29.381Z,101260.16
2023-05-09T10:33:00.188Z,101252.81
2023-05-09T10:35:29.126Z,101251.16
2023-05-09T10:37:57.476Z,101243.81
2023-05-09T10:41:07.644Z,101245.94
2023-05-09T10:43:37.702Z,101241.13
2023-05-09T10:46:14.995Z,101233.25
2023-05-09T10:48:49.715Z,101229.91
2023-05-09T10:51:17.813Z,101233.75
2023-05-09T10:53:46.616Z,101225.56
2023-05-09T10:56:24.763Z,101223.91
2023-05-09T10:58:54.578Z,101227.41
2023-05-09T11:01:32.819Z,101222.03
2023-05-09T11:04:02.329Z,101225.72
2023-05-09T11:06:52.034Z,101220.53
2023-05-09T11:09:41.663Z,101222.38
2023-05-09T11:12:10.938Z,101219.34
2023-05-09T11:14:44.415Z,101223.03
2023-05-09T11:17:13.371Z,101209.47
2023-05-09T11:20:00.161Z,101209.63
2023-05-09T11:22:29.027Z,101205.63
2023-05-09T11:25:07.474Z,101209.13
2023-05-09T11:27:40.778Z,101199.84
2023-05-09T11:30:11.140Z,101195.13
2023-05-09T11:32:43.448Z,101198.75
2023-05-09T11:35:12.639Z,101188.56
2023-05-09T11:37:45.848Z,101182.47
2023-05-09T11:40:14.276Z,101180.59
2023-05-09T11:42:43.936Z,101183.09
2023-05-09T11:45:13.878Z,101179.97
2023-05-09T11:47:42.250Z,101171.63
2023-05-09T11:50:19.407Z,101168.50
2023-05-09T11:52:47.902Z,101171.22
2023-05-09T11:55:17.000Z,101162.38
2023-05-09T11:57:46.373Z,101164.63
2023-05-09T12:00:16.726Z,101163.88
2023-05-09T12:02:45.207Z,101165.56
2023-05-09T12:05:14.659Z,101174.97
2023-05-09T12:07:44.672Z,101175.31
2023-05-09T12:10:14.274Z,101160.75
2023-05-09T12:12:47.680Z,101165.13
2023-05-09T12:15:17.615Z,101161.06
2023-05-09T12:17:47.096Z,101151.66
2023-05-09T12:20:16.512Z,101158.97
2023-05-09T12:22:45.965Z,101157.94
2023-05-09T12:25:14.886Z,101155.59
2023-05-09T12:27:42.932Z,101147.00
2023-05-09T12:30:12.063Z,101152.47
2023-05-09T12:32:42.892Z,101142.41
2023-05-09T12:35:11.523Z,101140.72
2023-05-09T12:37:39.730Z,101139.22
2023-05-09T12:40:12.399Z,101135.31
2023-05-09T12:42:40.643Z,101124.69
2023-05-09T12:45:10.015Z,101134.97
2023-05-09T12:47:39.063Z,101130.00
2023-05-09T12:50:10.991Z,101133.94
2023-05-09T12:52:50.193Z,101135.56
2023-05-09T12:55:26.792Z,101137.94
2023-05-09T12:58:00.157Z,101135.56
2023-05-09T13:00:28.653Z,101134.59
2023-05-09T13:02:57.203Z,101138.91
2023-05-09T13:05:31.774Z,101134.69
2023-05-09T13:08:04.364Z,101138.53
2023-05-09T13:10:32.821Z,101125.91
2023-05-09T13:13:00.795Z,101117.66
2023-05-09T13:15:32.115Z,101118.88
2023-05-09T13:18:00.294Z,101127.50
2023-05-09T13:20:29.661Z,101127.50
2023-05-09T13:22:57.996Z,101123.84
2023-05-09T13:25:25.935Z,101128.41
2023-05-09T13:27:54.298Z,101117.44
2023-05-09T13:30:42.112Z,101127.22
2023-05-09T13:33:24.557Z,101136.41
2023-05-09T13:35:55.283Z,101132.69
2023-05-09T13:38:25.635Z,101132.09
2023-05-09T13:40:53.834Z,101139.53
2023-05-09T13:43:21.803Z,101132.22
2023-05-09T13:45:49.933Z,101124.94
2023-05-09T13:48:18.223Z,101129.81
2023-05-09T13:50:46.920Z,101121.59
2023-05-09T13:53:16.295Z,101124.75
2023-05-09T13:55:44.305Z,101120.91
2023-05-09T13:58:12.275Z,101118.44
2023-05-09T14:00:40.479Z,101112.59
2023-05-09T14:03:08.585Z,101119.09
2023-05-09T14:05:36.534Z,101114.59
2023-05-09T14:08:04.695Z,101115.84
2023-05-09T14:10:34.780Z,101121.78
2023-05-09T14:13:03.029Z,101100.13
2023-05-09T14:15:31.036Z,101098.34
2023-05-09T14:17:59.011Z,101105.59
2023-05-09T14:20:27.371Z,101105.97
2023-05-09T14:22:59.707Z,101104.31
2023-05-09T14:25:27.930Z,101104.44
2023-05-09T14:27:59.367Z,101115.25
2023-05-09T14:30:27.659Z,101118.59
2023-05-09T14:32:55.603Z,101129.66
2023-05-09T14:35:23.770Z,101138.59
2023-05-09T14:37:51.987Z,101143.16
2023-05-09T14:40:20.303Z,101149.59
2023-05-09T14:42:49.137Z,101150.94
2023-05-09T14:45:18.618Z,101146.47
2023-05-09T14:47:47.026Z,101157.69
2023-05-09T14:50:15.876Z,101156.41
2023-05-09T14:52:44.639Z,101158.41
2023-05-09T14:55:12.837Z,101157.75
2023-05-09T14:57:41.359Z,101177.19
2023-05-09T15:00:20.383Z,101174.91
2023-05-09T15:02:51.534Z,101171.53
2023-05-09T15:05:19.648Z,101181.94
2023-05-09T15:07:47.706Z,101172.78
2023-05-09T15:10:16.123Z,101170.28
2023-05-09T15:12:44.580Z,101170.94
2023-05-09T15:15:16.316Z,101178.97
2023-05-09T15:17:44.872Z,101170.78
2023-05-09T15:20:15.729Z,101177.28
2023-05-09T15:22:44.145Z,101171.94
2023-05-09T15:25:12.151Z,101175.59
2023-05-09T15:27:40.152Z,101177.13
2023-05-09T15:30:09.348Z,101180.94
2023-05-09T15:32:39.835Z,101186.78
2023-05-09T15:35:08.554Z,101188.47
2023-05-09T15:37:37.932Z,101178.44
2023-05-09T15:40:08.036Z,101184.13
2023-05-09T15:42:36.057Z,101178.78
2023-05-09T15:45:04.083Z,101184.97
2023-05-09T15:47:32.199Z,101182.97
2023-05-09T15:50:00.240Z,101179.28
2023-05-09T15:52:29.825Z,101184.63
2023-05-09T15:55:17.267Z,101176.44
2023-05-09T15:57:52.628Z,101170.72
2023-05-09T16:00:20.870Z,101171.53
2023-05-09T16:02:48.906Z,101183.22
2023-05-09T16:05:17.220Z,101175.53
2023-05-09T16:07:45.869Z,101183.91
2023-05-09T16:10:15.771Z,101179.69
2023-05-09T16:12:43.924Z,101174.63
2023-05-09T16:15:12.700Z,101181.53
2023-05-09T16:17:41.134Z,101193.25
2023-05-09T16:20:13.587Z,101189.44
2023-05-09T16:22:42.131Z,101185.22
2023-05-09T16:25:10.405Z,101187.28
2023-05-09T16:27:39.747Z,101203.69
2023-05-09T16:30:08.916Z,101194.81
2023-05-09T16:32:37.536Z,101207.84
2023-05-09T16:35:06.335Z,101211.34
2023-05-09T16:37:35.637Z,101209.03
2023-05-09T16:40:04.426Z,101214.69
2023-05-09T16:42:32.572Z,101219.69
2023-05-09T16:45:01.840Z,101218.34
2023-05-09T16:47:30.102Z,101223.38
2023-05-09T16:49:58.055Z,101221.41
2023-05-09T16:52:26.066Z,101231.41
2023-05-09T16:54:54.835Z,101238.47
2023-05-09T16:57:22.962Z,101230.41
2023-05-09T16:59:51.167Z,101226.44
2023-05-09T17:02:20.491Z,101238.13
2023-05-09T17:04:48.734Z,101231.09
2023-05-09T17:07:16.857Z,101229.72
2023-05-09T17:09:44.893Z,101229.91
2023-05-09T17:12:17.500Z,101231.75
2023-05-09T17:14:45.753Z,101242.09
2023-05-09T17:17:14.750Z,101235.78
2023-05-09T17:19:44.292Z,101235.41
2023-05-09T17:22:12.296Z,101231.03
2023-05-09T17:24:40.203Z,101252.06
2023-05-09T17:27:08.268Z,101247.34
2023-05-09T17:29:36.421Z,101242.84
2023-05-09T17:32:04.526Z,101261.41
2023-05-09T17:34:32.461Z,101250.72
2023-05-09T17:37:02.999Z,101250.41
2023-05-09T17:39:30.950Z,101254.94
2023-05-09T17:41:58.878Z,101256.34
2023-05-09T17:44:27.859Z,101257.50
2023-05-09T17:46:55.751Z,101261.38
2023-05-09T17:49:23.928Z,101263.88
2023-05-09T17:51:52.289Z,101259.19
2023-05-09T17:54:21.802Z,101259.69
2023-05-09T17:56:51.669Z,101272.56
2023-05-09T17:59:19.636Z,101277.75
2023-05-09T18:01:47.558Z,101265.22
2023-05-09T18:04:15.881Z,101281.25
2023-05-09T18:06:43.799Z,101278.06
2023-05-09T18:09:11.897Z,101281.59
2023-05-09T18:11:41.256Z,101281.91
2023-05-09T18:14:09.218Z,101282.75
2023-05-09T18:16:37.432Z,101289.91
2023-05-09T18:19:05.567Z,101286.59
2023-05-09T18:21:33.445Z,101296.97
2023-05-09T18:24:01.444Z,101297.94
2023-05-09T18:26:29.328Z,101302.63
2023-05-09T18:28:58.929Z,101298.28
2023-05-09T18:31:27.719Z,101300.25
2023-05-09T18:33:56.373Z,101302.78
2023-05-09T18:36:24.334Z,101302.94
2023-05-09T18:38:52.780Z,101308.94
2023-05-09T18:41:22.004Z,101308.47
2023-05-09T18:43:49.890Z,101297.94
2023-05-09T18:46:21.172Z,101299.28
2023-05-09T18:48:51.056Z,101303.44
2023-05-09T18:51:19.024Z,101312.63
2023-05-09T18:53:47.365Z,101312.31
2023-05-09T18:56:15.396Z,101304.91
2023-05-09T18:58:43.390Z,101310.75
2023-05-09T19:01:11.963Z,101308.50
2023-05-09T19:03:45.305Z,101314.47
2023-05-09T19:06:14.002Z,101321.97
2023-05-09T19:08:42.320Z,101311.78
2023-05-09T19:11:11.563Z,101319.44
2023-05-09T19:13:49.488Z,101318.06
2023-05-09T19:16:21.493Z,101318.09
2023-05-09T19:18:51.409Z,101321.06
2023-05-09T19:21:19.380Z,101322.78
2023-05-09T19:23:49.214Z,101336.81
2023-05-09T19:26:19.728Z,101336.47
2023-05-09T19:28:48.101Z,101341.06
2023-05-09T19:31:16.287Z,101335.19
2023-05-09T19:33:45.765Z,101336.84
2023-05-09T19:36:15.198Z,101341.66
2023-05-09T19:38:43.096Z,101337.78
2023-05-09T19:41:12.754Z,101348.25
2023-05-09T19:43:41.019Z,101350.88
2023-05-09T19:46:09.120Z,101353.09
2023-05-09T19:48:37.141Z,101354.75
2023-05-09T19:51:05.258Z,101357.41
2023-05-09T19:53:34.680Z,101360.09
2023-05-09T19:56:02.699Z,101360.78
2023-05-09T19:58:30.610Z,101367.66
2023-05-09T20:00:58.687Z,101365.81
2023-05-09T20:03:26.637Z,101371.00
2023-05-09T20:05:54.723Z,101366.25
2023-05-09T20:08:22.677Z,101374.06
2023-05-09T20:10:52.370Z,101367.72
2023-05-09T20:13:20.522Z,101379.25
2023-05-09T20:15:48.724Z,101380.09
2023-05-09T20:18:16.765Z,101393.28
2023-05-09T20:20:44.910Z,101383.91
2023-05-09T20:23:12.876Z,101390.63
2023-05-09T20:25:41.019Z,101388.56
2023-05-09T20:28:11.997Z,101389.22
2023-05-09T20:30:40.125Z,101393.72
2023-05-09T20:33:08.229Z,101399.25
2023-05-09T20:35:36.761Z,101394.91
2023-05-09T20:38:05.135Z,101402.06
2023-05-09T20:40:33.251Z,101403.19
2023-05-09T20:43:01.192Z,101407.56
2023-05-09T20:45:30.989Z,101402.91
2023-05-09T20:47:59.390Z,101416.41
2023-05-09T20:50:27.520Z,101423.41
2023-05-09T20:52:55.620Z,101415.41
2023-05-09T20:55:23.730Z,101428.44
2023-05-09T20:57:51.733Z,101415.25
2023-05-09T21:00:19.807Z,101431.56
2023-05-09T21:02:49.282Z,101422.56
2023-05-09T21:05:17.577Z,101421.88
2023-05-09T21:07:45.623Z,101433.03
2023-05-09T21:10:13.994Z,101422.03
2023-05-09T21:12:42.236Z,101431.56
2023-05-09T21:15:11.043Z,101427.91
2023-05-09T21:17:39.224Z,101430.44
2023-05-09T21:20:10.202Z,101431.94
2023-05-09T21:22:38.203Z,101421.25
2023-05-09T21:25:07.058Z,101427.91
2023-05-09T21:27:35.022Z,101435.56
2023-05-09T21:30:03.017Z,101436.84
2023-05-09T21:32:31.017Z,101434.78
2023-05-09T21:34:59.206Z,101435.91
2023-05-09T21:37:29.045Z,101434.41
2023-05-09T21:39:56.999Z,101434.31
2023-05-09T21:42:24.958Z,101440.25
2023-05-09T21:44:52.900Z,101437.56
2023-05-09T21:47:20.994Z,101438.84
2023-05-09T21:49:49.085Z,101441.53
2023-05-09T21:52:18.480Z,101439.19
2023-05-09T21:54:47.846Z,101446.47
2023-05-09T21:57:15.981Z,101453.19
2023-05-09T21:59:44.259Z,101445.03
2023-05-09T22:02:12.418Z,101448.06
2023-05-09T22:04:41.011Z,101461.97
2023-05-09T22:07:09.066Z,101446.66
2023-05-09T22:09:36.932Z,101452.84
2023-05-09T22:12:06.833Z,101452.00
2023-05-09T22:14:41.926Z,101456.16
2023-05-09T22:17:17.165Z,101453.66
2023-05-09T22:19:45.137Z,101462.09
2023-05-09T22:22:13.462Z,101456.59
2023-05-09T22:24:41.622Z,101454.59
2023-05-09T22:27:11.114Z,101453.16
2023-05-09T22:29:39.017Z,101460.56
2023-05-09T22:32:08.373Z,101454.59
2023-05-09T22:34:36.544Z,101450.25
2023-05-09T22:37:04.652Z,101453.69
2023-05-09T22:39:32.739Z,101451.16
2023-05-09T22:42:02.495Z,101448.66
2023-05-09T22:44:32.434Z,101453.00
2023-05-09T22:47:00.404Z,101457.50
2023-05-09T22:49:28.329Z,101462.97
2023-05-09T22:51:56.398Z,101454.00
2023-05-09T22:54:25.815Z,101454.00
2023-05-09T22:56:53.749Z,101457.34
2023-05-09T22:59:21.673Z,101454.34
2023-05-09T23:01:51.869Z,101453.38
2023-05-09T23:04:19.809Z,101456.72
2023-05-09T23:06:47.871Z,101460.38
2023-05-09T23:09:15.841Z,101454.53
2023-05-09T23:11:43.751Z,101462.69
2023-05-09T23:14:11.867Z,101462.34
2023-05-09T23:16:39.758Z,101468.94
2023-05-09T23:19:09.223Z,101466.78
2023-05-09T23:21:37.168Z,101462.84
2023-05-09T23:24:05.441Z,101461.81
2023-05-09T23:26:33.444Z,101456.09
2023-05-09T23:29:01.677Z,101454.41
2023-05-09T23:31:29.634Z,101449.94
2023-05-09T23:33:57.653Z,101448.25
2023-05-09T23:36:26.911Z,101451.09
2023-05-09T23:38:54.968Z,101451.09
2023-05-09T23:41:22.869Z,101453.91
2023-05-09T23:43:50.937Z,101449.72
2023-05-09T23:46:18.857Z,101453.69
2023-05-09T23:48:46.839Z,101459.03
2023-05-09T23:51:14.756Z,101453.16
2023-05-09T23:53:44.123Z,101455.31
2023-05-09T23:56:11.996Z,101461.63
2023-05-09T23:58:40.078Z,101465.28
